Terminal Aerodrome Forecast
Issued by NWS

Home | Current Version | Previous Version | Text Only | Print | Product List | Glossary On
Versions: 1 2 3 4 5 6 7 8 9 10 11 12 13 14 15 16 17 18 19 20 21
899
FTUS41 KPBZ 091201 AAA
TAFZZV
TAF AMD
KZZV 091201Z 0912/1012 24010KT 3SM -SHSN BKN015 OVC025
      TEMPO 0912/0913 1SM -SHSN
     FM091500 30008KT 5SM -SHSN BKN015
     FM100000 27006KT P6SM BKN025=

USA.gov is the U.S. government's official web portal to all federal, state and local government web resources and services.